Time;durP1;ratioP1;P1;durP2;ratioP2;P2;SDS_P1;SDS_P2;PMS_P1;PMS_P2;Temp;Humidity;BMP_temperature;BMP_pressure;BME280_temperature;BME280_humidity;BME280_pressure;Samples;Min_cycle;Max_cycle;Signal;HPM_P1;HPM_P2
2023/09/21 00:01:06;;;;;;;0.05;0.05;;;;;;;12.72;66.74;98588.53;7363542;19;20025;-61
2023/09/21 00:03:34;;;;;;;0.00;0.00;;;;;;;12.72;66.49;98588.53;7364508;19;20007;-60
2023/09/21 00:06:00;;;;;;;0.08;0.08;;;;;;;12.66;66.62;98578.44;7363540;19;20731;-61
2023/09/21 00:08:26;;;;;;;0.10;0.10;;;;;;;12.70;66.73;98593.00;7375808;19;20021;-61
2023/09/21 00:10:51;;;;;;;0.00;0.00;;;;;;;12.69;66.68;98587.88;7368389;19;20011;-61
2023/09/21 00:13:26;;;;;;;0.10;0.10;;;;;;;12.63;67.14;98569.94;7367350;19;20070;-61
2023/09/21 00:15:52;;;;;;;0.00;0.00;;;;;;;12.65;66.98;98589.84;7366252;19;20014;-61
2023/09/21 00:18:20;;;;;;;0.10;0.10;;;;;;;12.64;66.96;98582.09;7361749;19;20031;-60
2023/09/21 00:20:48;;;;;;;0.10;0.10;;;;;;;12.61;66.89;98575.25;7369323;19;20993;-60
2023/09/21 00:23:14;;;;;;;0.00;0.00;;;;;;;12.61;66.76;98585.75;7366049;19;20006;-61
2023/09/21 00:25:40;;;;;;;0.10;0.10;;;;;;;12.58;66.41;98579.88;7362940;19;20042;-64
2023/09/21 00:28:07;;;;;;;0.08;0.08;;;;;;;12.57;66.73;98579.03;7365845;19;20693;-60
2023/09/21 00:30:33;;;;;;;0.00;0.00;;;;;;;12.55;66.92;98575.66;7367560;19;20017;-62
2023/09/21 00:32:59;;;;;;;0.00;0.00;;;;;;;12.54;67.13;98574.00;7368504;19;20011;-61
2023/09/21 00:35:27;;;;;;;0.00;0.00;;;;;;;12.52;67.12;98575.88;7361293;19;21800;-61
2023/09/21 00:37:52;;;;;;;0.10;0.10;;;;;;;12.50;67.17;98572.50;7365072;19;20006;-61
2023/09/21 00:40:18;;;;;;;0.10;0.10;;;;;;;12.49;67.29;98576.06;7368453;19;20043;-61
2023/09/21 00:42:47;;;;;;;0.08;0.08;;;;;;;12.49;66.92;98577.84;7374170;19;20017;-61
2023/09/21 00:45:14;;;;;;;0.10;0.10;;;;;;;12.35;67.28;98563.03;7368818;19;20014;-61
2023/09/21 00:47:46;;;;;;;0.10;0.10;;;;;;;12.41;67.42;98579.16;7374237;19;20636;-61
2023/09/21 00:50:12;;;;;;;0.10;0.10;;;;;;;12.40;67.27;98577.50;7372615;19;20046;-61
2023/09/21 00:52:42;;;;;;;0.05;0.05;;;;;;;12.37;66.42;98577.72;7369594;19;20002;-61
2023/09/21 00:55:23;;;;;;;0.00;0.00;;;;;;;12.38;66.34;98583.78;7373846;19;20027;-60
2023/09/21 00:57:55;;;;;;;0.10;0.10;;;;;;;12.34;66.68;98571.81;7373415;19;20010;-61
2023/09/21 01:00:26;;;;;;;0.10;0.10;;;;;;;12.31;67.11;98577.25;7372260;19;20019;-60
2023/09/21 01:02:53;;;;;;;0.10;0.10;;;;;;;12.28;67.20;98578.28;7369416;19;20018;-61
2023/09/21 01:05:21;;;;;;;0.00;0.00;;;;;;;12.16;67.02;98564.19;7367630;19;20043;-61
2023/09/21 01:07:48;;;;;;;0.10;0.10;;;;;;;12.23;67.18;98580.34;7374065;19;20115;-61
2023/09/21 01:10:15;;;;;;;0.10;0.10;;;;;;;12.12;66.78;98560.09;7368291;19;20027;-61
2023/09/21 01:12:49;;;;;;;0.08;0.08;;;;;;;12.20;66.24;98576.16;7369297;19;20010;-60
2023/09/21 01:15:15;;;;;;;0.10;0.10;;;;;;;12.16;67.32;98576.44;7366566;19;20498;-61
2023/09/21 01:17:41;;;;;;;0.10;0.10;;;;;;;12.03;67.01;98560.69;7371543;19;20043;-61
2023/09/21 01:20:23;;;;;;;0.10;0.10;;;;;;;12.06;67.08;98562.25;7367368;19;20010;-60
2023/09/21 01:23:12;;;;;;;0.10;0.10;;;;;;;12.13;67.06;98574.03;7370359;19;20010;-61
2023/09/21 01:25:39;;;;;;;0.03;0.03;;;;;;;12.07;67.32;98570.03;7367273;19;20365;-61
2023/09/21 01:28:09;;;;;;;0.10;0.10;;;;;;;12.07;67.13;98572.63;7371271;19;20011;-60
2023/09/21 01:30:38;;;;;;;0.10;0.10;;;;;;;12.04;67.25;98570.19;7368721;19;20030;-60
2023/09/21 01:33:07;;;;;;;0.10;0.10;;;;;;;12.03;67.80;98579.00;7373323;19;20044;-61
2023/09/21 01:35:33;;;;;;;0.03;0.03;;;;;;;12.00;67.64;98581.78;7371620;19;20492;-60
2023/09/21 01:37:58;;;;;;;0.00;0.00;;;;;;;11.87;67.65;98559.97;7372224;19;20021;-61
2023/09/21 01:40:24;;;;;;;0.00;0.00;;;;;;;11.79;67.35;98543.88;7371528;19;20478;-61
2023/09/21 01:42:50;;;;;;;0.00;0.00;;;;;;;11.96;67.33;98572.44;7367588;19;20866;-61
2023/09/21 01:45:16;;;;;;;0.00;0.00;;;;;;;11.81;66.65;98555.06;7371863;19;21045;-60
2023/09/21 01:47:42;;;;;;;0.10;0.10;;;;;;;11.88;67.32;98562.47;7367804;19;20010;-60
2023/09/21 01:50:11;;;;;;;0.03;0.03;;;;;;;11.90;67.20;98578.06;7370068;19;20078;-61
2023/09/21 01:52:38;;;;;;;0.00;0.00;;;;;;;11.90;67.19;98576.28;7371150;19;20042;-61
2023/09/21 01:55:07;;;;;;;0.05;0.05;;;;;;;11.90;67.13;98572.84;7368290;19;20082;-61
2023/09/21 01:57:33;;;;;;;0.00;0.00;;;;;;;11.87;67.02;98573.03;7369664;19;20007;-61
2023/09/21 02:00:01;;;;;;;0.10;0.10;;;;;;;11.86;66.61;98581.78;7365279;19;20002;-61
2023/09/21 02:02:26;;;;;;;0.03;0.03;;;;;;;11.84;66.47;98583.69;7364309;19;20011;-61
2023/09/21 02:04:52;;;;;;;0.00;0.00;;;;;;;11.83;67.10;98587.22;7368628;19;20357;-60
2023/09/21 02:07:18;;;;;;;0.10;0.10;;;;;;;11.76;67.00;98575.41;7379071;19;20027;-60
2023/09/21 02:09:43;;;;;;;0.05;0.05;;;;;;;11.77;67.19;98577.13;7371439;19;20351;-61
2023/09/21 02:12:09;;;;;;;0.00;0.00;;;;;;;11.73;66.86;98575.63;7368652;19;20047;-60
2023/09/21 02:14:34;;;;;;;0.00;0.00;;;;;;;11.76;66.90;98575.41;7367702;19;20965;-61
2023/09/21 02:16:59;;;;;;;0.00;0.00;;;;;;;11.75;67.47;98568.53;7364616;19;20019;-61
2023/09/21 02:19:26;;;;;;;0.10;0.10;;;;;;;11.74;67.29;98569.47;7364713;19;20017;-61
2023/09/21 02:21:51;;;;;;;0.00;0.00;;;;;;;11.72;67.73;98563.50;7363090;19;20014;-61
2023/09/21 02:24:17;;;;;;;0.00;0.00;;;;;;;11.67;67.55;98556.78;7368493;19;20023;-60
2023/09/21 02:26:42;;;;;;;0.00;0.00;;;;;;;11.72;67.25;98563.50;7368095;19;20018;-61
2023/09/21 02:29:11;;;;;;;0.10;0.10;;;;;;;11.72;67.41;98563.50;7369411;19;20109;-60
2023/09/21 02:31:37;;;;;;;0.00;0.00;;;;;;;11.66;67.04;98554.25;7366466;19;20035;-60
2023/09/21 02:34:04;;;;;;;0.10;0.10;;;;;;;11.70;67.26;98569.63;7374741;19;20007;-60
2023/09/21 02:36:31;;;;;;;0.00;0.00;;;;;;;11.69;67.79;98559.28;7374942;19;20007;-61
2023/09/21 02:38:56;;;;;;;0.00;0.00;;;;;;;11.69;67.42;98565.34;7370626;19;20010;-61
2023/09/21 02:41:23;;;;;;;0.10;0.10;;;;;;;11.69;67.38;98565.34;7363885;19;20039;-61
2023/09/21 02:43:48;;;;;;;0.10;0.10;;;;;;;11.65;67.81;98563.84;7370213;19;20010;-61
2023/09/21 02:46:14;;;;;;;0.10;0.10;;;;;;;11.63;67.76;98557.88;7365605;19;20007;-61
2023/09/21 02:48:40;;;;;;;0.10;0.10;;;;;;;11.70;67.35;98556.56;7369790;19;20015;-61
2023/09/21 02:51:06;;;;;;;0.08;0.08;;;;;;;11.70;67.68;98556.56;7376051;19;20455;-61
2023/09/21 02:53:32;;;;;;;0.10;0.10;;;;;;;11.70;67.97;98561.78;7376035;19;20014;-61
2023/09/21 02:55:59;;;;;;;0.10;0.10;;;;;;;11.72;67.57;98558.28;7362721;19;20018;-61
2023/09/21 02:58:26;;;;;;;0.10;0.10;;;;;;;11.72;67.90;98560.88;7370534;19;20025;-60
2023/09/21 03:00:51;;;;;;;0.00;0.00;;;;;;;11.68;67.95;98558.44;7366652;19;20097;-60
2023/09/21 03:03:22;;;;;;;0.10;0.10;;;;;;;11.76;67.52;98559.72;7366953;19;20117;-61
2023/09/21 03:05:49;;;;;;;0.08;0.08;;;;;;;11.74;67.71;98561.63;7366031;19;20047;-61
2023/09/21 03:08:15;;;;;;;0.08;0.08;;;;;;;11.78;68.02;98555.28;7342320;19;20607;-61
2023/09/21 03:10:41;;;;;;;0.00;0.00;;;;;;;11.78;67.75;98561.34;7364587;19;20006;-60
2023/09/21 03:13:10;;;;;;;0.10;0.10;;;;;;;11.79;67.81;98549.94;7366331;19;20021;-60
2023/09/21 03:15:36;;;;;;;0.10;0.10;;;;;;;11.81;67.89;98552.44;7366809;19;20018;-61
2023/09/21 03:18:07;;;;;;;0.10;0.10;;;;;;;11.81;67.84;98541.97;7362577;19;20093;-60
2023/09/21 03:20:34;;;;;;;0.00;0.00;;;;;;;11.66;67.68;98518.50;7340137;19;20013;-60
2023/09/21 03:23:05;;;;;;;0.07;0.07;;;;;;;11.68;67.71;98521.84;7368591;19;20735;-60
2023/09/21 03:25:33;;;;;;;0.00;0.00;;;;;;;11.85;67.78;98543.50;7367086;19;20521;-61
2023/09/21 03:28:24;;;;;;;0.00;0.00;;;;;;;11.84;67.99;98536.59;7373623;19;20500;-61
2023/09/21 03:30:50;;;;;;;0.00;0.00;;;;;;;11.85;67.97;98543.50;7369832;19;20094;-61
2023/09/21 03:33:18;;;;;;;0.00;0.00;;;;;;;11.86;67.95;98545.19;7362722;19;20025;-62
2023/09/21 03:35:44;;;;;;;0.03;0.03;;;;;;;11.85;67.80;98546.13;7366853;19;20014;-61
2023/09/21 03:38:12;;;;;;;0.10;0.10;;;;;;;11.85;67.56;98543.50;7368392;19;20768;-60
2023/09/21 03:40:37;;;;;;;0.00;0.00;;;;;;;11.70;67.79;98508.66;7361413;19;20014;-61
2023/09/21 03:43:03;;;;;;;0.03;0.03;;;;;;;11.61;67.43;98504.88;7369398;19;20038;-60
2023/09/21 03:45:29;;;;;;;0.00;0.00;;;;;;;11.72;67.43;98521.66;7375629;19;20015;-61
2023/09/21 03:47:55;;;;;;;0.10;0.10;;;;;;;11.65;67.40;98521.19;7364999;19;20632;-61
2023/09/21 03:50:25;;;;;;;0.00;0.00;;;;;;;11.81;67.98;98541.97;7363825;19;20037;-61
2023/09/21 03:52:52;;;;;;;0.00;0.00;;;;;;;11.81;68.21;98549.81;7364941;19;20523;-61
2023/09/21 03:55:19;;;;;;;0.00;0.00;;;;;;;11.72;67.98;98542.59;7362481;19;20027;-61
2023/09/21 03:57:47;;;;;;;0.03;0.03;;;;;;;11.80;68.07;98548.16;7370391;19;20031;-61
2023/09/21 04:00:29;;;;;;;0.00;0.00;;;;;;;11.79;67.73;98549.09;7360163;19;20006;-60
2023/09/21 04:03:00;;;;;;;0.10;0.10;;;;;;;11.72;67.55;98538.19;7367976;19;20016;-60
2023/09/21 04:05:31;;;;;;;0.03;0.03;;;;;;;11.74;67.64;98545.94;7364002;19;20011;-61
2023/09/21 04:07:57;;;;;;;0.10;0.10;;;;;;;11.72;67.58;98555.66;7361307;19;20499;-61
2023/09/21 04:10:22;;;;;;;0.10;0.10;;;;;;;11.72;67.42;98555.66;7362733;19;20426;-61
2023/09/21 04:12:48;;;;;;;0.00;0.00;;;;;;;11.58;67.04;98536.41;7361937;19;20010;-62
2023/09/21 04:15:15;;;;;;;0.10;0.10;;;;;;;11.67;67.28;98546.31;7363467;19;20656;-61
2023/09/21 04:17:41;;;;;;;0.00;0.00;;;;;;;11.63;67.51;98543.97;7365177;19;20006;-60
2023/09/21 04:20:11;;;;;;;0.10;0.10;;;;;;;11.59;67.24;98551.16;7368503;19;20060;-61
2023/09/21 04:22:41;;;;;;;0.00;0.00;;;;;;;11.59;67.62;98559.00;7360699;19;20021;-61
2023/09/21 04:25:07;;;;;;;0.10;0.10;;;;;;;11.57;67.81;98560.88;7364323;19;20528;-61
2023/09/21 04:27:35;;;;;;;0.00;0.00;;;;;;;11.42;67.41;98536.50;7362217;19;20378;-61
2023/09/21 04:30:01;;;;;;;0.00;0.00;;;;;;;11.50;67.45;98548.25;7359806;19;20024;-61
2023/09/21 04:32:26;;;;;;;0.10;0.10;;;;;;;11.50;67.65;98564.78;7363669;19;20010;-61
2023/09/21 04:34:52;;;;;;;0.00;0.00;;;;;;;11.47;67.62;98562.38;7362428;19;20022;-61
2023/09/21 04:37:17;;;;;;;0.00;0.00;;;;;;;11.35;67.82;98544.81;7364885;19;20381;-61
2023/09/21 04:39:43;;;;;;;0.00;0.00;;;;;;;11.34;68.38;98548.34;7366370;19;20015;-60
2023/09/21 04:42:13;;;;;;;0.10;0.10;;;;;;;11.39;68.43;98556.75;7364540;19;20015;-60
2023/09/21 04:44:39;;;;;;;0.00;0.00;;;;;;;11.38;68.78;98565.53;7370154;19;20022;-61
2023/09/21 04:47:05;;;;;;;0.10;0.10;;;;;;;11.36;68.92;98572.63;7358277;19;20011;-60
2023/09/21 04:49:30;;;;;;;0.00;0.00;;;;;;;11.32;68.59;98564.13;7364474;19;20027;-61
2023/09/21 04:51:55;;;;;;;0.10;0.10;;;;;;;11.32;68.84;98566.75;7362751;19;20392;-62
2023/09/21 04:54:22;;;;;;;0.08;0.08;;;;;;;11.30;69.05;98570.38;7365835;19;20017;-61
2023/09/21 04:56:51;;;;;;;0.10;0.10;;;;;;;11.28;69.25;98565.25;7360844;19;20089;-62
2023/09/21 04:59:20;;;;;;;0.00;0.00;;;;;;;11.26;68.96;98571.50;7365148;19;20022;-61
2023/09/21 05:01:47;;;;;;;0.00;0.00;;;;;;;11.22;69.52;98570.00;7362277;19;20064;-61
2023/09/21 05:04:13;;;;;;;0.10;0.10;;;;;;;11.21;69.47;98573.56;7362990;19;20029;-61
2023/09/21 05:06:38;;;;;;;0.00;0.00;;;;;;;11.03;69.08;98546.72;7359608;19;20039;-61
2023/09/21 05:09:04;;;;;;;0.10;0.10;;;;;;;11.16;68.87;98566.81;7367473;19;20010;-61
2023/09/21 05:11:33;;;;;;;0.00;0.00;;;;;;;11.13;69.17;98569.59;7363135;19;20022;-60
2023/09/21 05:13:59;;;;;;;0.00;0.00;;;;;;;11.04;68.53;98564.91;7365643;19;20514;-61
2023/09/21 05:16:24;;;;;;;0.10;0.10;;;;;;;11.09;68.99;98575.94;7342029;19;20014;-61
2023/09/21 05:18:50;;;;;;;0.00;0.00;;;;;;;11.04;68.92;98575.38;7366084;19;20502;-61
2023/09/21 05:21:15;;;;;;;0.00;0.00;;;;;;;11.05;68.76;98581.41;7358594;19;20360;-60
2023/09/21 05:23:45;;;;;;;0.10;0.10;;;;;;;11.00;68.52;98581.72;7370723;19;20011;-61
2023/09/21 05:26:10;;;;;;;0.10;0.10;;;;;;;11.01;68.50;98583.38;7366116;19;20100;-61
2023/09/21 05:28:36;;;;;;;0.10;0.10;;;;;;;10.96;69.18;98579.38;7372038;19;20007;-60
2023/09/21 05:31:02;;;;;;;0.10;0.10;;;;;;;10.84;69.21;98571.28;7368577;19;20780;-60
2023/09/21 05:33:27;;;;;;;0.00;0.00;;;;;;;10.96;69.22;98590.66;7373016;19;20018;-60
2023/09/21 05:35:53;;;;;;;0.00;0.00;;;;;;;10.95;69.26;98596.81;7367404;19;20018;-61
2023/09/21 05:38:19;;;;;;;0.00;0.00;;;;;;;10.94;69.43;98591.66;7369267;19;20014;-61
2023/09/21 05:40:45;;;;;;;0.05;0.05;;;;;;;10.77;69.64;98569.13;7374597;19;20021;-60
2023/09/21 05:43:10;;;;;;;0.00;0.00;;;;;;;10.91;69.29;98603.13;7372687;19;20019;-61
2023/09/21 05:45:35;;;;;;;0.05;0.05;;;;;;;10.88;69.36;98598.06;7366487;19;20074;-60
2023/09/21 05:48:01;;;;;;;0.00;0.00;;;;;;;10.87;69.44;98602.47;7371526;19;20022;-61
2023/09/21 05:50:26;;;;;;;0.03;0.03;;;;;;;10.83;69.88;98605.34;7369577;19;20018;-61
2023/09/21 05:52:53;;;;;;;0.00;0.00;;;;;;;10.81;69.72;98602.81;7369383;19;20039;-60
2023/09/21 05:55:19;;;;;;;0.00;0.00;;;;;;;10.83;69.78;98615.78;7362663;19;20078;-61
2023/09/21 05:57:47;;;;;;;0.00;0.00;;;;;;;10.78;69.85;98609.97;7375065;19;20479;-61
2023/09/21 06:00:14;;;;;;;0.00;0.00;;;;;;;10.78;69.89;98617.81;7375996;19;20013;-61
2023/09/21 06:02:39;;;;;;;0.00;0.00;;;;;;;10.75;69.96;98623.22;7374243;19;20043;-61
2023/09/21 06:05:05;;;;;;;0.10;0.10;;;;;;;10.60;69.99;98610.09;7367876;19;20007;-60
2023/09/21 06:07:31;;;;;;;0.10;0.10;;;;;;;10.71;69.97;98632.16;7360998;19;20035;-60
2023/09/21 06:09:57;;;;;;;0.00;0.00;;;;;;;10.63;70.51;98625.56;7370199;19;20018;-61
2023/09/21 06:12:25;;;;;;;0.10;0.10;;;;;;;10.66;70.51;98635.00;7363281;19;20561;-61
2023/09/21 06:14:52;;;;;;;0.00;0.00;;;;;;;10.60;70.32;98628.38;7370244;19;20018;-61
2023/09/21 06:17:17;;;;;;;0.08;0.08;;;;;;;10.61;70.30;98635.25;7359566;19;20014;-61
2023/09/21 06:19:44;;;;;;;0.10;0.10;;;;;;;10.58;70.14;98638.03;7369672;19;20011;-60
2023/09/21 06:22:09;;;;;;;0.08;0.08;;;;;;;10.45;70.07;98623.16;7366664;19;20025;-61
2023/09/21 06:24:34;;;;;;;0.10;0.10;;;;;;;10.53;70.48;98634.84;7375924;19;20010;-61
2023/09/21 06:27:00;;;;;;;0.00;0.00;;;;;;;10.48;70.44;98636.88;7373678;19;20006;-61
2023/09/21 06:29:25;;;;;;;0.10;0.10;;;;;;;10.48;70.36;98638.63;7370345;19;20112;-60
2023/09/21 06:31:54;;;;;;;0.00;0.00;;;;;;;10.49;70.42;98649.00;7367309;19;20003;-60
2023/09/21 06:34:24;;;;;;;0.10;0.10;;;;;;;10.47;70.51;98648.22;7367271;19;20193;-60
2023/09/21 06:36:50;;;;;;;0.10;0.10;;;;;;;10.47;70.66;98639.56;7368564;19;20023;-60
2023/09/21 06:39:16;;;;;;;0.00;0.00;;;;;;;10.45;70.37;98636.22;7366480;19;20007;-61
2023/09/21 06:41:44;;;;;;;0.00;0.00;;;;;;;10.14;70.61;98596.13;7366008;19;20014;-61
2023/09/21 06:44:09;;;;;;;0.00;0.00;;;;;;;10.45;70.86;98647.50;7367119;19;20025;-61
2023/09/21 06:46:34;;;;;;;0.10;0.10;;;;;;;10.40;70.86;98649.50;7367076;19;20010;-60
2023/09/21 06:49:02;;;;;;;0.03;0.03;;;;;;;10.41;70.96;98653.78;7373276;19;20013;-61
2023/09/21 06:51:28;;;;;;;0.10;0.10;;;;;;;10.25;70.87;98630.31;7370064;19;20027;-61
2023/09/21 06:53:53;;;;;;;0.10;0.10;;;;;;;10.44;70.52;98665.81;7365541;19;20010;-61
2023/09/21 06:56:21;;;;;;;0.10;0.10;;;;;;;10.43;70.95;98670.19;7367112;19;20017;-60
2023/09/21 06:58:47;;;;;;;0.00;0.00;;;;;;;10.48;70.47;98672.56;7360056;19;20007;-61
2023/09/21 07:01:12;;;;;;;0.00;0.00;;;;;;;10.49;70.46;98674.25;7370568;19;20011;-61
2023/09/21 07:03:37;;;;;;;0.00;0.00;;;;;;;10.47;70.86;98671.72;7362983;19;20029;-60
2023/09/21 07:06:03;;;;;;;0.00;0.00;;;;;;;10.50;70.68;98682.00;7362350;19;20010;-60
2023/09/21 07:08:28;;;;;;;0.10;0.10;;;;;;;10.40;70.39;98654.72;7366898;19;20022;-60
2023/09/21 07:10:54;;;;;;;0.10;0.10;;;;;;;10.57;70.22;98682.50;7362592;19;20021;-61
2023/09/21 07:13:19;;;;;;;0.00;0.00;;;;;;;10.58;70.60;98674.56;7367237;19;20007;-60
2023/09/21 07:15:45;;;;;;;0.00;0.00;;;;;;;10.60;70.20;98677.97;7363544;19;20007;-60
2023/09/21 07:18:11;;;;;;;0.00;0.00;;;;;;;10.62;70.06;98680.47;7366557;19;20481;-61
2023/09/21 07:20:37;;;;;;;0.00;0.00;;;;;;;10.50;70.45;98663.72;7365746;19;20017;-60
2023/09/21 07:23:03;;;;;;;0.00;0.00;;;;;;;10.68;70.28;98694.94;7366002;19;20474;-61
2023/09/21 07:25:29;;;;;;;0.00;0.00;;;;;;;10.67;70.15;98693.28;7368159;19;20010;-61
2023/09/21 07:27:55;;;;;;;0.00;0.00;;;;;;;10.59;70.47;98671.06;7358980;19;20035;-61
2023/09/21 07:30:21;;;;;;;0.00;0.00;;;;;;;10.75;70.23;98696.31;7366412;19;20823;-65
2023/09/21 07:32:47;;;;;;;0.10;0.10;;;;;;;10.78;70.18;98706.56;7364855;19;20027;-61
2023/09/21 07:35:14;;;;;;;0.10;0.10;;;;;;;10.82;70.51;98697.66;7363123;19;20018;-60
2023/09/21 07:37:46;;;;;;;0.00;0.00;;;;;;;10.86;70.37;98704.38;7371893;19;20017;-60
2023/09/21 07:40:12;;;;;;;0.10;0.10;;;;;;;10.90;70.12;98704.13;7368852;19;20875;-60
2023/09/21 07:42:42;;;;;;;0.00;0.00;;;;;;;10.97;70.31;98702.00;7360123;19;20007;-63
2023/09/21 07:45:08;;;;;;;0.00;0.00;;;;;;;11.02;70.22;98702.59;7362540;19;20022;-61
2023/09/21 07:47:34;;;;;;;0.00;0.00;;;;;;;11.08;69.77;98706.63;7363013;19;20018;-61
2023/09/21 07:49:59;;;;;;;0.00;0.00;;;;;;;11.13;70.22;98707.22;7368570;19;20024;-61
2023/09/21 07:52:26;;;;;;;0.10;0.10;;;;;;;11.14;70.15;98707.13;7342531;19;20011;-61
2023/09/21 07:54:53;;;;;;;0.00;0.00;;;;;;;11.26;70.29;98713.44;7367198;19;20381;-61
2023/09/21 07:57:18;;;;;;;0.10;0.10;;;;;;;11.34;70.03;98711.19;7361502;19;20105;-61
2023/09/21 07:59:44;;;;;;;0.00;0.00;;;;;;;11.38;70.08;98711.88;7365987;19;20082;-60
2023/09/21 08:02:09;;;;;;;0.10;0.10;;;;;;;11.56;69.76;98721.28;7359199;19;20007;-60
2023/09/21 08:04:36;;;;;;;0.00;0.00;;;;;;;11.65;70.05;98718.09;7365610;19;20933;-60
2023/09/21 08:07:03;;;;;;;0.08;0.08;;;;;;;11.78;69.51;98720.84;7364377;19;20010;-61
2023/09/21 08:09:29;;;;;;;0.10;0.10;;;;;;;11.90;69.34;98719.28;7372628;19;20015;-61
2023/09/21 08:11:54;;;;;;;0.10;0.10;;;;;;;12.01;69.26;98724.72;7360476;19;20035;-61
2023/09/21 08:14:19;;;;;;;0.10;0.10;;;;;;;12.13;69.20;98731.84;7364947;19;20022;-61
2023/09/21 08:16:45;;;;;;;0.03;0.03;;;;;;;12.23;69.05;98718.22;7364846;19;20010;-60
2023/09/21 08:19:10;;;;;;;0.10;0.10;;;;;;;12.36;69.02;98724.34;7363576;19;20014;-61
2023/09/21 08:21:36;;;;;;;0.00;0.00;;;;;;;12.50;69.07;98728.75;7364764;19;20014;-60
2023/09/21 08:24:01;;;;;;;0.10;0.10;;;;;;;12.62;68.79;98728.84;7365494;19;20018;-61
2023/09/21 08:26:27;;;;;;;0.03;0.03;;;;;;;12.78;68.72;98725.25;7364963;19;20014;-61
2023/09/21 08:28:52;;;;;;;0.10;0.10;;;;;;;12.91;68.65;98718.28;7357654;19;20017;-61
2023/09/21 08:31:19;;;;;;;0.00;0.00;;;;;;;13.08;68.46;98723.28;7367602;19;20465;-61
2023/09/21 08:33:45;;;;;;;0.08;0.08;;;;;;;13.26;68.74;98723.06;7363035;19;20044;-61
2023/09/21 08:36:11;;;;;;;0.10;0.10;;;;;;;13.42;68.29;98727.19;7362437;19;20002;-61
2023/09/21 08:38:37;;;;;;;0.10;0.10;;;;;;;13.62;68.53;98725.03;7366874;19;20637;-61
2023/09/21 08:41:03;;;;;;;0.00;0.00;;;;;;;13.81;67.74;98737.78;7357555;19;20962;-61
2023/09/21 08:43:30;;;;;;;0.10;0.10;;;;;;;13.99;67.92;98729.50;7363598;19;21136;-62
2023/09/21 08:45:57;;;;;;;0.00;0.00;;;;;;;14.17;67.33;98737.88;7364893;19;20010;-62
2023/09/21 08:48:23;;;;;;;0.10;0.10;;;;;;;14.34;67.22;98730.63;7361420;19;20011;-61
2023/09/21 08:50:54;;;;;;;0.10;0.10;;;;;;;14.55;67.31;98726.53;7362156;19;20014;-61
2023/09/21 08:53:25;;;;;;;0.10;0.10;;;;;;;14.74;66.73;98726.06;7358662;19;20018;-61
2023/09/21 08:55:54;;;;;;;0.10;0.10;;;;;;;14.98;66.83;98729.56;7366424;19;20018;-62
2023/09/21 08:58:23;;;;;;;0.10;0.10;;;;;;;15.14;66.56;98713.50;7363748;19;20021;-62
2023/09/21 09:00:52;;;;;;;0.10;0.10;;;;;;;15.44;66.66;98731.44;7365478;19;20014;-62
2023/09/21 09:03:20;;;;;;;0.10;0.10;;;;;;;15.56;65.45;98727.06;7371398;19;20442;-61
2023/09/21 09:05:46;;;;;;;0.10;0.10;;;;;;;15.81;65.83;98734.84;7378784;19;20770;-61
2023/09/21 09:08:12;;;;;;;0.10;0.10;;;;;;;16.02;65.17;98739.44;7363448;19;20018;-61
2023/09/21 09:10:42;;;;;;;0.10;0.10;;;;;;;16.26;65.31;98737.53;7372782;19;20014;-62
2023/09/21 09:13:10;;;;;;;0.10;0.10;;;;;;;16.46;64.63;98748.31;7366762;19;20014;-61
2023/09/21 09:15:38;;;;;;;0.10;0.10;;;;;;;16.70;64.21;98746.41;7373045;19;20014;-62
2023/09/21 09:18:05;;;;;;;0.10;0.10;;;;;;;16.93;63.63;98735.84;7370284;19;20039;-62
2023/09/21 09:20:32;;;;;;;0.10;0.10;;;;;;;17.15;64.04;98738.44;7373601;19;20090;-62
2023/09/21 09:23:00;;;;;;;0.03;0.03;;;;;;;17.42;63.82;98734.50;7368031;19;20074;-61
2023/09/21 09:25:26;;;;;;;0.10;0.10;;;;;;;17.61;62.85;98732.84;7367109;19;20007;-61
2023/09/21 09:27:51;;;;;;;0.10;0.10;;;;;;;17.84;62.42;98736.25;7365563;19;20031;-61
2023/09/21 09:30:20;;;;;;;0.10;0.10;;;;;;;18.08;62.50;98727.22;7376594;19;20015;-61
2023/09/21 09:32:47;;;;;;;0.10;0.10;;;;;;;18.22;61.95;98713.66;7371461;19;20011;-62
2023/09/21 09:35:13;;;;;;;0.10;0.10;;;;;;;18.55;61.32;98735.50;7372454;19;20014;-62
2023/09/21 09:37:39;;;;;;;0.10;0.10;;;;;;;18.71;60.82;98713.91;7370356;19;20495;-61
2023/09/21 09:40:09;;;;;;;0.10;0.10;;;;;;;19.04;60.83;98742.63;7369412;19;20024;-62
2023/09/21 09:42:38;;;;;;;0.10;0.10;;;;;;;19.23;60.02;98736.56;7364192;19;20761;-61
2023/09/21 09:45:05;;;;;;;0.00;0.00;;;;;;;19.45;59.53;98749.50;7373718;19;20014;-62
2023/09/21 09:47:32;;;;;;;0.10;0.10;;;;;;;19.64;59.40;98745.22;7367267;19;20006;-62
2023/09/21 09:49:58;;;;;;;;;;;;;;;20.00;63.94;98750.78;7367012;19;20066;-62
2023/09/21 09:52:25;;;;;;;0.00;0.00;;;;;;;20.08;58.94;98751.72;7363386;19;19921;-62
2023/09/21 09:54:52;;;;;;;0.10;0.10;;;;;;;20.19;58.04;98750.72;7366127;19;20019;-61
2023/09/21 09:57:21;;;;;;;0.10;0.10;;;;;;;20.41;57.83;98749.53;7363910;19;20062;-62
2023/09/21 09:59:47;;;;;;;0.10;0.10;;;;;;;20.58;58.00;98755.91;7367351;19;20014;-62
2023/09/21 10:02:16;;;;;;;0.20;0.20;;;;;;;20.81;57.98;98759.88;7361824;19;20018;-62
2023/09/21 10:04:46;;;;;;;0.10;0.10;;;;;;;21.01;57.30;98762.44;7367143;19;20015;-62
2023/09/21 10:07:16;;;;;;;0.10;0.10;;;;;;;21.19;56.88;98752.69;7368727;19;20010;-61
2023/09/21 10:09:42;;;;;;;0.10;0.10;;;;;;;21.38;56.42;98757.88;7361125;19;20014;-62
2023/09/21 10:12:08;;;;;;;0.10;0.10;;;;;;;21.61;55.97;98754.78;7363564;19;20026;-61
2023/09/21 10:14:36;;;;;;;0.10;0.10;;;;;;;21.84;55.47;98760.44;7366014;19;20006;-62
2023/09/21 10:17:04;;;;;;;0.10;0.10;;;;;;;22.10;55.54;98757.81;7365298;19;20043;-62
2023/09/21 10:19:30;;;;;;;0.10;0.10;;;;;;;22.25;54.62;98761.59;7366069;19;20021;-62
2023/09/21 10:22:03;;;;;;;0.10;0.10;;;;;;;22.55;56.25;98760.25;7358131;19;20010;-62
2023/09/21 10:24:30;;;;;;;0.10;0.10;;;;;;;22.73;54.79;98768.19;7366547;19;20011;-62
2023/09/21 10:27:03;;;;;;;0.10;0.10;;;;;;;23.09;56.42;98758.19;7364880;19;20600;-61
2023/09/21 10:29:33;;;;;;;0.10;0.10;;;;;;;23.36;55.10;98761.59;7362380;19;20010;-62
2023/09/21 10:32:06;;;;;;;0.10;0.10;;;;;;;23.66;55.04;98760.16;7366571;19;20293;-62
2023/09/21 10:34:31;;;;;;;0.20;0.20;;;;;;;23.81;52.72;98759.31;7368096;19;20102;-62
2023/09/21 10:37:10;;;;;;;0.10;0.10;;;;;;;24.22;55.20;98769.13;7366656;19;20098;-61
2023/09/21 10:39:36;;;;;;;0.10;0.10;;;;;;;24.35;50.68;98766.78;7356634;19;20017;-61
2023/09/21 10:42:04;;;;;;;0.10;0.10;;;;;;;24.64;51.42;98770.75;7362623;19;20007;-62
2023/09/21 10:45:02;;;;;;;0.10;0.10;;;;;;;24.95;54.06;98766.28;7366709;19;20020;-62
2023/09/21 10:47:36;;;;;;;0.10;0.10;;;;;;;25.02;50.35;98761.06;7364394;19;20415;-62
2023/09/21 10:50:04;;;;;;;0.10;0.10;;;;;;;25.27;49.82;98772.47;7364770;19;20010;-62
2023/09/21 10:52:31;;;;;;;0.10;0.10;;;;;;;25.41;49.09;98758.38;7362032;19;20011;-62
2023/09/21 10:54:57;;;;;;;0.20;0.20;;;;;;;25.54;49.62;98752.44;7364692;19;20078;-62
2023/09/21 10:57:30;;;;;;;0.10;0.10;;;;;;;26.00;50.92;98766.63;7341750;19;20007;-62
2023/09/21 10:59:59;;;;;;;0.10;0.10;;;;;;;26.12;47.29;98772.38;7369348;19;20355;-61
2023/09/21 11:02:26;;;;;;;0.00;0.00;;;;;;;26.29;48.71;98757.00;7368759;19;20735;-62
2023/09/21 11:04:52;;;;;;;;;;;;;;;26.90;54.50;98773.72;7373123;19;20006;-62
2023/09/21 11:07:18;;;;;;;0.10;0.10;;;;;;;26.91;47.77;98773.53;7364662;19;19918;-62
2023/09/21 11:09:44;;;;;;;0.10;0.10;;;;;;;27.06;45.84;98776.19;7364701;19;20014;-62
2023/09/21 11:12:13;;;;;;;0.10;0.10;;;;;;;27.13;45.98;98777.16;7369159;19;20018;-62
2023/09/21 11:14:43;;;;;;;0.20;0.20;;;;;;;27.21;46.16;98773.53;7366203;19;20118;-62
2023/09/21 11:17:11;;;;;;;0.10;0.10;;;;;;;27.08;45.58;98774.22;7361474;19;20019;-61
2023/09/21 11:19:41;;;;;;;0.10;0.10;;;;;;;27.02;45.19;98774.94;7364523;19;20015;-62
2023/09/21 11:22:07;;;;;;;0.10;0.10;;;;;;;26.97;45.56;98777.34;7360866;19;20006;-62
2023/09/21 11:24:36;;;;;;;0.10;0.10;;;;;;;27.08;44.44;98774.22;7363697;19;20879;-61
2023/09/21 11:27:03;;;;;;;0.10;0.10;;;;;;;27.11;44.93;98781.84;7362498;19;20457;-62
2023/09/21 11:29:29;;;;;;;0.00;0.00;;;;;;;27.23;44.20;98781.38;7362038;19;20010;-62
2023/09/21 11:31:54;;;;;;;0.17;0.17;;;;;;;27.39;42.95;98767.75;7361296;19;20007;-62
2023/09/21 11:34:20;;;;;;;0.15;0.15;;;;;;;27.50;44.10;98761.88;7363644;19;20793;-61